createdAt,value
2019-03-01T00:45:53.164Z,11.08
2019-03-01T01:00:51.096Z,11.20
2019-03-01T01:15:51.962Z,12.00
2019-03-01T01:30:53.334Z,13.30
2019-03-01T01:45:53.314Z,11.48
2019-03-01T02:00:53.784Z,9.05
2019-03-01T02:15:51.604Z,9.15
2019-03-01T02:30:51.665Z,9.55
2019-03-01T02:45:51.453Z,8.55
2019-03-01T03:00:51.396Z,7.00
2019-03-01T03:15:53.516Z,7.33
2019-03-01T03:45:51.864Z,8.98
2019-03-01T04:00:53.585Z,8.68
2019-03-01T04:15:50.959Z,8.50
2019-03-01T04:30:53.897Z,9.35
2019-03-01T04:45:51.715Z,9.65
2019-03-01T05:00:52.757Z,11.57
2019-03-01T05:15:51.158Z,10.15
2019-03-01T05:30:50.956Z,9.80
2019-03-01T05:45:50.846Z,10.85
2019-03-01T06:00:51.452Z,10.50
2019-03-01T07:00:53.031Z,13.68
2019-03-01T07:15:50.331Z,13.08
2019-03-01T07:30:50.264Z,14.43
2019-03-01T07:45:51.240Z,14.65
2019-03-01T08:00:53.613Z,13.35
2019-03-01T08:15:50.354Z,13.72
2019-03-01T08:30:50.257Z,13.95
2019-03-01T08:45:50.814Z,14.18
2019-03-01T09:00:59.264Z,15.03
2019-03-01T09:15:51.940Z,16.95
2019-03-01T09:30:51.748Z,14.68
2019-03-01T09:45:52.120Z,15.10
2019-03-01T10:00:59.265Z,14.40
2019-03-01T10:15:50.889Z,14.38
2019-03-01T10:30:51.278Z,15.10
2019-03-01T10:45:51.679Z,15.90
2019-03-01T11:00:51.672Z,16.42
2019-03-01T11:15:56.689Z,17.07
2019-03-01T11:30:51.162Z,16.87
2019-03-01T11:45:51.530Z,16.05
2019-03-01T12:00:52.366Z,15.85
2019-03-01T12:15:53.378Z,17.05
2019-03-01T12:30:51.157Z,16.10
2019-03-01T12:45:51.068Z,17.92
2019-03-01T13:00:50.985Z,17.07
2019-03-01T13:15:52.442Z,15.72
2019-03-01T13:30:48.599Z,16.07
2019-03-01T13:45:52.597Z,13.98
2019-03-01T14:00:50.427Z,14.63
2019-03-01T14:15:53.464Z,14.15
2019-03-01T14:30:51.279Z,13.70
2019-03-01T14:45:51.101Z,11.97
2019-03-01T15:00:55.459Z,14.85
2019-03-01T15:15:51.057Z,17.12
2019-03-01T15:30:51.507Z,18.70
2019-03-01T15:45:51.444Z,18.05
2019-03-01T16:00:51.445Z,22.20
2019-03-01T16:15:51.299Z,19.48
2019-03-01T16:30:53.235Z,22.37
2019-03-01T16:45:50.221Z,20.77
2019-03-01T17:00:53.628Z,22.75
2019-03-01T17:15:53.546Z,25.48
2019-03-01T17:30:51.771Z,28.75
2019-03-01T17:45:50.989Z,29.92
2019-03-01T18:00:51.193Z,30.80
2019-03-01T18:15:52.906Z,29.25
2019-03-01T18:30:56.133Z,30.15
2019-03-01T19:00:53.215Z,28.83
2019-03-01T19:15:54.367Z,30.92
2019-03-01T19:30:53.523Z,27.10
2019-03-01T19:45:51.316Z,26.80
2019-03-01T20:00:53.141Z,30.80
2019-03-01T20:15:53.305Z,26.17
2019-03-01T20:30:51.730Z,19.20
2019-03-01T20:45:51.612Z,15.72
2019-03-01T21:15:53.232Z,15.95
2019-03-01T21:30:51.253Z,15.80
2019-03-01T21:45:59.029Z,18.17
2019-03-01T22:00:50.793Z,18.75
2019-03-01T22:15:51.761Z,20.45
2019-03-01T22:30:51.775Z,19.95
2019-03-01T22:45:51.459Z,18.98
2019-03-01T23:15:51.724Z,21.02
2019-03-01T23:30:52.444Z,23.25
2019-03-01T23:45:53.667Z,23.18
